sensor_id;sensor_type;location;lat;lon;timestamp;P1;durP1;ratioP1;P2;durP2;ratioP2
43841;SDS011;29495;49.970;20.842;2023-05-07T11:43:22;5.40;;;3.95;;
43841;SDS011;29495;49.970;20.842;2023-05-07T11:45:49;6.25;;;3.60;;
43841;SDS011;29495;49.970;20.842;2023-05-07T11:53:25;3.92;;;3.20;;
43841;SDS011;29495;49.970;20.842;2023-05-07T11:55:52;4.43;;;3.63;;
43841;SDS011;29495;49.970;20.842;2023-05-07T11:58:21;4.60;;;3.55;;
43841;SDS011;29495;49.970;20.842;2023-05-07T12:00:51;4.27;;;3.53;;
43841;SDS011;29495;49.970;20.842;2023-05-07T12:05:48;4.35;;;3.75;;
43841;SDS011;29495;49.970;20.842;2023-05-07T12:08:17;4.28;;;3.78;;
43841;SDS011;29495;49.970;20.842;2023-05-07T12:10:44;4.95;;;3.78;;
43841;SDS011;29495;49.970;20.842;2023-05-07T12:13:20;6.50;;;4.18;;
43841;SDS011;29495;49.970;20.842;2023-05-07T12:15:50;6.32;;;5.65;;
43841;SDS011;29495;49.970;20.842;2023-05-07T12:18:23;7.22;;;5.55;;
43841;SDS011;29495;49.970;20.842;2023-05-07T12:20:53;7.60;;;5.68;;
43841;SDS011;29495;49.970;20.842;2023-05-07T12:23:22;7.38;;;5.00;;
43841;SDS011;29495;49.970;20.842;2023-05-07T12:25:48;6.13;;;4.90;;
43841;SDS011;29495;49.970;20.842;2023-05-07T12:28:20;6.47;;;4.28;;
43841;SDS011;29495;49.970;20.842;2023-05-07T12:30:49;6.43;;;4.15;;
43841;SDS011;29495;49.970;20.842;2023-05-07T12:33:17;7.05;;;3.70;;
43841;SDS011;29495;49.970;20.842;2023-05-07T12:35:48;13.20;;;5.13;;
43841;SDS011;29495;49.970;20.842;2023-05-07T12:38:16;9.73;;;4.55;;
43841;SDS011;29495;49.970;20.842;2023-05-07T12:41:22;7.25;;;4.13;;
43841;SDS011;29495;49.970;20.842;2023-05-07T12:44:18;5.75;;;4.00;;
43841;SDS011;29495;49.970;20.842;2023-05-07T12:46:57;5.15;;;3.75;;
43841;SDS011;29495;49.970;20.842;2023-05-07T12:51:01;5.78;;;3.80;;
43841;SDS011;29495;49.970;20.842;2023-05-07T12:53:22;6.60;;;4.18;;
43841;SDS011;29495;49.970;20.842;2023-05-07T12:56:15;9.07;;;4.80;;
43841;SDS011;29495;49.970;20.842;2023-05-07T12:58:48;5.88;;;3.95;;
43841;SDS011;29495;49.970;20.842;2023-05-07T13:01:30;9.88;;;4.75;;
43841;SDS011;29495;49.970;20.842;2023-05-07T13:04:28;9.68;;;4.45;;
43841;SDS011;29495;49.970;20.842;2023-05-07T13:07:54;8.18;;;4.53;;
43841;SDS011;29495;49.970;20.842;2023-05-07T13:10:49;7.68;;;4.53;;
43841;SDS011;29495;49.970;20.842;2023-05-07T13:13:17;6.95;;;3.80;;
43841;SDS011;29495;49.970;20.842;2023-05-07T13:15:46;7.78;;;5.10;;
43841;SDS011;29495;49.970;20.842;2023-05-07T13:20:44;5.10;;;3.97;;
43841;SDS011;29495;49.970;20.842;2023-05-07T13:23:12;5.82;;;3.72;;
43841;SDS011;29495;49.970;20.842;2023-05-07T13:25:43;6.72;;;4.18;;
43841;SDS011;29495;49.970;20.842;2023-05-07T13:28:09;9.43;;;4.63;;
43841;SDS011;29495;49.970;20.842;2023-05-07T13:30:44;6.63;;;4.75;;
43841;SDS011;29495;49.970;20.842;2023-05-07T13:33:15;6.28;;;5.20;;
43841;SDS011;29495;49.970;20.842;2023-05-07T13:35:44;7.90;;;4.47;;
43841;SDS011;29495;49.970;20.842;2023-05-07T13:38:15;6.68;;;4.55;;
43841;SDS011;29495;49.970;20.842;2023-05-07T13:40:59;6.10;;;4.47;;
43841;SDS011;29495;49.970;20.842;2023-05-07T13:43:25;4.85;;;4.10;;
43841;SDS011;29495;49.970;20.842;2023-05-07T13:45:51;7.18;;;3.75;;
43841;SDS011;29495;49.970;20.842;2023-05-07T13:48:17;5.50;;;4.15;;
43841;SDS011;29495;49.970;20.842;2023-05-07T13:50:43;5.45;;;3.75;;
43841;SDS011;29495;49.970;20.842;2023-05-07T13:53:10;4.93;;;3.80;;
43841;SDS011;29495;49.970;20.842;2023-05-07T13:55:41;3.53;;;2.90;;
43841;SDS011;29495;49.970;20.842;2023-05-07T13:58:07;3.38;;;2.80;;
43841;SDS011;29495;49.970;20.842;2023-05-07T14:00:33;3.65;;;3.05;;
43841;SDS011;29495;49.970;20.842;2023-05-07T14:03:00;5.72;;;3.92;;
43841;SDS011;29495;49.970;20.842;2023-05-07T14:05:26;6.53;;;3.63;;
43841;SDS011;29495;49.970;20.842;2023-05-07T14:07:59;6.38;;;4.43;;
43841;SDS011;29495;49.970;20.842;2023-05-07T14:10:25;6.88;;;4.22;;
43841;SDS011;29495;49.970;20.842;2023-05-07T14:12:52;6.18;;;4.68;;
43841;SDS011;29495;49.970;20.842;2023-05-07T14:15:18;6.82;;;5.03;;
43841;SDS011;29495;49.970;20.842;2023-05-07T14:17:44;6.30;;;4.57;;
43841;SDS011;29495;49.970;20.842;2023-05-07T14:20:11;4.97;;;4.20;;
43841;SDS011;29495;49.970;20.842;2023-05-07T14:22:38;6.57;;;5.22;;
43841;SDS011;29495;49.970;20.842;2023-05-07T14:25:04;5.68;;;4.75;;
43841;SDS011;29495;49.970;20.842;2023-05-07T14:27:31;8.38;;;5.93;;
43841;SDS011;29495;49.970;20.842;2023-05-07T14:29:58;6.47;;;5.25;;
43841;SDS011;29495;49.970;20.842;2023-05-07T14:32:24;8.82;;;5.90;;
43841;SDS011;29495;49.970;20.842;2023-05-07T14:34:50;7.95;;;5.75;;
43841;SDS011;29495;49.970;20.842;2023-05-07T14:37:17;7.60;;;6.15;;
43841;SDS011;29495;49.970;20.842;2023-05-07T14:39:45;6.13;;;4.85;;
43841;SDS011;29495;49.970;20.842;2023-05-07T14:42:11;6.78;;;5.00;;
43841;SDS011;29495;49.970;20.842;2023-05-07T14:44:40;7.75;;;5.13;;
43841;SDS011;29495;49.970;20.842;2023-05-07T14:47:07;6.72;;;4.97;;
43841;SDS011;29495;49.970;20.842;2023-05-07T14:49:33;6.60;;;5.38;;
43841;SDS011;29495;49.970;20.842;2023-05-07T14:52:00;5.78;;;4.80;;
43841;SDS011;29495;49.970;20.842;2023-05-07T14:54:26;7.88;;;5.93;;
43841;SDS011;29495;49.970;20.842;2023-05-07T14:56:55;5.50;;;4.40;;
43841;SDS011;29495;49.970;20.842;2023-05-07T14:59:21;9.45;;;6.32;;
43841;SDS011;29495;49.970;20.842;2023-05-07T15:01:50;9.23;;;5.97;;
43841;SDS011;29495;49.970;20.842;2023-05-07T15:04:16;9.10;;;5.95;;
43841;SDS011;29495;49.970;20.842;2023-05-07T15:06:42;7.07;;;5.63;;
43841;SDS011;29495;49.970;20.842;2023-05-07T15:09:08;9.80;;;6.72;;
43841;SDS011;29495;49.970;20.842;2023-05-07T15:15:01;10.07;;;6.45;;
43841;SDS011;29495;49.970;20.842;2023-05-07T15:22:05;8.63;;;6.40;;
43841;SDS011;29495;49.970;20.842;2023-05-07T15:38:50;7.65;;;4.18;;
43841;SDS011;29495;49.970;20.842;2023-05-07T15:42:24;5.07;;;4.30;;
43841;SDS011;29495;49.970;20.842;2023-05-07T15:45:01;6.50;;;5.32;;
43841;SDS011;29495;49.970;20.842;2023-05-07T15:47:43;5.50;;;4.90;;
